sensor_id;sensor_type;location;lat;lon;timestamp;P1;durP1;ratioP1;P2;durP2;ratioP2
42912;SDS011;50720;54.324;18.558;2022-11-20T00:01:56;53.30;;;23.40;;
42912;SDS011;50720;54.324;18.558;2022-11-20T00:04:26;50.40;;;24.33;;
42912;SDS011;50720;54.324;18.558;2022-11-20T00:06:55;48.10;;;22.38;;
42912;SDS011;50720;54.324;18.558;2022-11-20T00:09:25;51.88;;;23.48;;
42912;SDS011;50720;54.324;18.558;2022-11-20T00:11:55;47.95;;;23.90;;
42912;SDS011;50720;54.324;18.558;2022-11-20T00:14:26;64.72;;;27.52;;
42912;SDS011;50720;54.324;18.558;2022-11-20T00:16:55;61.00;;;27.20;;
42912;SDS011;50720;54.324;18.558;2022-11-20T00:19:26;55.90;;;26.23;;
42912;SDS011;50720;54.324;18.558;2022-11-20T00:21:55;57.22;;;27.13;;
42912;SDS011;50720;54.324;18.558;2022-11-20T00:24:25;57.97;;;25.87;;
42912;SDS011;50720;54.324;18.558;2022-11-20T00:26:55;55.90;;;28.58;;
42912;SDS011;50720;54.324;18.558;2022-11-20T00:29:26;60.05;;;27.90;;
42912;SDS011;50720;54.324;18.558;2022-11-20T00:31:56;64.25;;;27.10;;
42912;SDS011;50720;54.324;18.558;2022-11-20T00:34:26;59.35;;;26.40;;
42912;SDS011;50720;54.324;18.558;2022-11-20T00:36:55;59.53;;;26.10;;
42912;SDS011;50720;54.324;18.558;2022-11-20T00:39:25;56.60;;;28.33;;
42912;SDS011;50720;54.324;18.558;2022-11-20T00:41:55;51.97;;;26.60;;
42912;SDS011;50720;54.324;18.558;2022-11-20T00:44:26;59.40;;;26.80;;
42912;SDS011;50720;54.324;18.558;2022-11-20T00:46:56;50.50;;;25.10;;
42912;SDS011;50720;54.324;18.558;2022-11-20T00:49:26;65.32;;;27.70;;
42912;SDS011;50720;54.324;18.558;2022-11-20T00:51:55;58.40;;;27.15;;
42912;SDS011;50720;54.324;18.558;2022-11-20T00:54:25;57.67;;;26.80;;
42912;SDS011;50720;54.324;18.558;2022-11-20T00:56:54;58.08;;;27.50;;
42912;SDS011;50720;54.324;18.558;2022-11-20T00:59:24;57.50;;;28.58;;
42912;SDS011;50720;54.324;18.558;2022-11-20T01:01:55;60.47;;;27.10;;
42912;SDS011;50720;54.324;18.558;2022-11-20T01:04:25;58.58;;;26.83;;
42912;SDS011;50720;54.324;18.558;2022-11-20T01:06:54;52.63;;;24.55;;
42912;SDS011;50720;54.324;18.558;2022-11-20T01:09:24;50.53;;;25.50;;
42912;SDS011;50720;54.324;18.558;2022-11-20T01:11:54;51.55;;;25.25;;
42912;SDS011;50720;54.324;18.558;2022-11-20T01:14:23;50.65;;;25.08;;
42912;SDS011;50720;54.324;18.558;2022-11-20T01:16:54;57.30;;;24.38;;
42912;SDS011;50720;54.324;18.558;2022-11-20T01:19:24;58.53;;;25.13;;
42912;SDS011;50720;54.324;18.558;2022-11-20T01:21:53;54.85;;;25.77;;
42912;SDS011;50720;54.324;18.558;2022-11-20T01:24:24;50.40;;;25.42;;
42912;SDS011;50720;54.324;18.558;2022-11-20T01:26:53;53.38;;;26.40;;
42912;SDS011;50720;54.324;18.558;2022-11-20T01:29:23;55.65;;;28.23;;
42912;SDS011;50720;54.324;18.558;2022-11-20T01:31:54;52.45;;;25.88;;
42912;SDS011;50720;54.324;18.558;2022-11-20T01:34:24;51.70;;;24.02;;
42912;SDS011;50720;54.324;18.558;2022-11-20T01:36:54;55.10;;;25.95;;
42912;SDS011;50720;54.324;18.558;2022-11-20T01:39:25;49.38;;;23.50;;
42912;SDS011;50720;54.324;18.558;2022-11-20T01:41:55;54.65;;;24.10;;
42912;SDS011;50720;54.324;18.558;2022-11-20T01:44:47;42.75;;;22.77;;
42912;SDS011;50720;54.324;18.558;2022-11-20T01:47:22;54.60;;;24.48;;
42912;SDS011;50720;54.324;18.558;2022-11-20T01:49:56;50.50;;;22.80;;
42912;SDS011;50720;54.324;18.558;2022-11-20T01:52:30;57.75;;;24.20;;
42912;SDS011;50720;54.324;18.558;2022-11-20T01:55:04;50.92;;;23.33;;
42912;SDS011;50720;54.324;18.558;2022-11-20T01:57:37;49.55;;;21.40;;
42912;SDS011;50720;54.324;18.558;2022-11-20T02:00:10;44.15;;;21.58;;
42912;SDS011;50720;54.324;18.558;2022-11-20T02:02:44;55.30;;;22.90;;
42912;SDS011;50720;54.324;18.558;2022-11-20T02:05:18;48.13;;;22.67;;
42912;SDS011;50720;54.324;18.558;2022-11-20T02:07:50;48.47;;;23.30;;
42912;SDS011;50720;54.324;18.558;2022-11-20T02:10:23;46.53;;;22.65;;
42912;SDS011;50720;54.324;18.558;2022-11-20T02:12:53;51.80;;;21.83;;
42912;SDS011;50720;54.324;18.558;2022-11-20T02:15:40;45.17;;;21.55;;
42912;SDS011;50720;54.324;18.558;2022-11-20T02:18:12;47.95;;;23.27;;
42912;SDS011;50720;54.324;18.558;2022-11-20T02:20:45;46.88;;;20.98;;
42912;SDS011;50720;54.324;18.558;2022-11-20T02:23:19;42.75;;;20.70;;
42912;SDS011;50720;54.324;18.558;2022-11-20T02:25:57;50.97;;;24.85;;
42912;SDS011;50720;54.324;18.558;2022-11-20T02:28:29;46.08;;;22.58;;
42912;SDS011;50720;54.324;18.558;2022-11-20T02:31:00;39.35;;;20.75;;
42912;SDS011;50720;54.324;18.558;2022-11-20T02:33:29;43.78;;;20.98;;
42912;SDS011;50720;54.324;18.558;2022-11-20T02:35:59;48.78;;;22.45;;
42912;SDS011;50720;54.324;18.558;2022-11-20T02:38:29;48.08;;;22.58;;
42912;SDS011;50720;54.324;18.558;2022-11-20T02:41:01;49.58;;;23.65;;
42912;SDS011;50720;54.324;18.558;2022-11-20T02:43:30;48.55;;;22.77;;
42912;SDS011;50720;54.324;18.558;2022-11-20T02:46:01;48.72;;;23.75;;
42912;SDS011;50720;54.324;18.558;2022-11-20T02:48:30;42.45;;;20.15;;
42912;SDS011;50720;54.324;18.558;2022-11-20T02:51:00;45.53;;;22.95;;
42912;SDS011;50720;54.324;18.558;2022-11-20T02:53:29;47.33;;;22.55;;
42912;SDS011;50720;54.324;18.558;2022-11-20T02:56:01;43.85;;;20.48;;
42912;SDS011;50720;54.324;18.558;2022-11-20T02:58:30;49.20;;;22.08;;
42912;SDS011;50720;54.324;18.558;2022-11-20T03:01:00;45.55;;;21.10;;
42912;SDS011;50720;54.324;18.558;2022-11-20T03:03:30;46.10;;;21.42;;
42912;SDS011;50720;54.324;18.558;2022-11-20T03:05:59;44.75;;;21.98;;
42912;SDS011;50720;54.324;18.558;2022-11-20T03:08:29;41.13;;;19.67;;
42912;SDS011;50720;54.324;18.558;2022-11-20T03:11:03;46.22;;;20.85;;
42912;SDS011;50720;54.324;18.558;2022-11-20T03:13:33;45.42;;;19.77;;
42912;SDS011;50720;54.324;18.558;2022-11-20T03:16:05;48.30;;;21.88;;
42912;SDS011;50720;54.324;18.558;2022-11-20T03:18:35;47.13;;;21.52;;
42912;SDS011;50720;54.324;18.558;2022-11-20T03:21:06;46.00;;;20.88;;
42912;SDS011;50720;54.324;18.558;2022-11-20T03:23:36;49.00;;;21.27;;
42912;SDS011;50720;54.324;18.558;2022-11-20T03:26:09;43.65;;;21.05;;
42912;SDS011;50720;54.324;18.558;2022-11-20T03:28:41;43.05;;;20.92;;
42912;SDS011;50720;54.324;18.558;2022-11-20T03:31:15;41.80;;;21.27;;
42912;SDS011;50720;54.324;18.558;2022-11-20T03:33:46;43.63;;;20.77;;
42912;SDS011;50720;54.324;18.558;2022-11-20T03:36:17;51.35;;;21.77;;
42912;SDS011;50720;54.324;18.558;2022-11-20T03:38:47;46.55;;;22.50;;
42912;SDS011;50720;54.324;18.558;2022-11-20T03:41:20;51.15;;;23.17;;
42912;SDS011;50720;54.324;18.558;2022-11-20T03:43:50;51.17;;;22.27;;
42912;SDS011;50720;54.324;18.558;2022-11-20T03:46:22;52.60;;;23.00;;
42912;SDS011;50720;54.324;18.558;2022-11-20T03:48:52;48.80;;;22.20;;
42912;SDS011;50720;54.324;18.558;2022-11-20T03:51:23;46.13;;;21.48;;
42912;SDS011;50720;54.324;18.558;2022-11-20T03:53:54;48.60;;;22.02;;
42912;SDS011;50720;54.324;18.558;2022-11-20T03:56:29;43.30;;;21.67;;
42912;SDS011;50720;54.324;18.558;2022-11-20T03:58:59;39.45;;;20.75;;
42912;SDS011;50720;54.324;18.558;2022-11-20T04:01:30;46.63;;;22.70;;
42912;SDS011;50720;54.324;18.558;2022-11-20T04:04:01;42.45;;;21.52;;
42912;SDS011;50720;54.324;18.558;2022-11-20T04:06:34;40.78;;;20.88;;
42912;SDS011;50720;54.324;18.558;2022-11-20T04:09:05;44.75;;;22.33;;
42912;SDS011;50720;54.324;18.558;2022-11-20T04:11:39;51.10;;;22.83;;
42912;SDS011;50720;54.324;18.558;2022-11-20T04:14:12;45.55;;;21.65;;
42912;SDS011;50720;54.324;18.558;2022-11-20T04:16:44;47.03;;;21.52;;
42912;SDS011;50720;54.324;18.558;2022-11-20T04:19:14;46.45;;;24.05;;
42912;SDS011;50720;54.324;18.558;2022-11-20T04:21:45;49.70;;;23.55;;
42912;SDS011;50720;54.324;18.558;2022-11-20T04:24:14;49.80;;;22.83;;
42912;SDS011;50720;54.324;18.558;2022-11-20T04:26:46;48.92;;;23.00;;
42912;SDS011;50720;54.324;18.558;2022-11-20T04:29:15;50.40;;;23.98;;
42912;SDS011;50720;54.324;18.558;2022-11-20T04:31:46;48.20;;;23.77;;
42912;SDS011;50720;54.324;18.558;2022-11-20T04:34:15;39.67;;;21.75;;
42912;SDS011;50720;54.324;18.558;2022-11-20T04:36:45;47.53;;;22.90;;
42912;SDS011;50720;54.324;18.558;2022-11-20T04:39:15;48.25;;;22.23;;
42912;SDS011;50720;54.324;18.558;2022-11-20T04:41:46;50.63;;;20.95;;
42912;SDS011;50720;54.324;18.558;2022-11-20T04:44:36;44.10;;;20.98;;
42912;SDS011;50720;54.324;18.558;2022-11-20T04:47:06;45.97;;;21.33;;
42912;SDS011;50720;54.324;18.558;2022-11-20T04:49:35;44.08;;;21.52;;
42912;SDS011;50720;54.324;18.558;2022-11-20T04:52:05;63.83;;;27.17;;
42912;SDS011;50720;54.324;18.558;2022-11-20T04:54:35;80.60;;;30.38;;
42912;SDS011;50720;54.324;18.558;2022-11-20T04:57:06;77.57;;;31.52;;
42912;SDS011;50720;54.324;18.558;2022-11-20T04:59:40;78.97;;;30.92;;
42912;SDS011;50720;54.324;18.558;2022-11-20T05:02:10;83.00;;;31.20;;
42912;SDS011;50720;54.324;18.558;2022-11-20T05:04:40;73.82;;;32.33;;
42912;SDS011;50720;54.324;18.558;2022-11-20T05:07:10;76.80;;;32.53;;
42912;SDS011;50720;54.324;18.558;2022-11-20T05:09:39;74.10;;;29.95;;
42912;SDS011;50720;54.324;18.558;2022-11-20T05:12:10;66.60;;;26.20;;
42912;SDS011;50720;54.324;18.558;2022-11-20T05:14:40;62.03;;;25.13;;
42912;SDS011;50720;54.324;18.558;2022-11-20T05:17:10;52.75;;;23.67;;
42912;SDS011;50720;54.324;18.558;2022-11-20T05:19:40;54.67;;;21.23;;
42912;SDS011;50720;54.324;18.558;2022-11-20T05:22:10;51.97;;;22.67;;
42912;SDS011;50720;54.324;18.558;2022-11-20T05:24:39;45.45;;;20.80;;
42912;SDS011;50720;54.324;18.558;2022-11-20T05:27:10;43.97;;;20.25;;
42912;SDS011;50720;54.324;18.558;2022-11-20T05:32:10;40.97;;;18.67;;
42912;SDS011;50720;54.324;18.558;2022-11-20T05:34:39;45.35;;;19.98;;
42912;SDS011;50720;54.324;18.558;2022-11-20T05:37:09;43.45;;;19.42;;
42912;SDS011;50720;54.324;18.558;2022-11-20T05:39:38;39.05;;;18.88;;
42912;SDS011;50720;54.324;18.558;2022-11-20T05:42:08;42.47;;;20.27;;
42912;SDS011;50720;54.324;18.558;2022-11-20T05:44:56;51.67;;;19.75;;
42912;SDS011;50720;54.324;18.558;2022-11-20T05:47:26;49.58;;;22.38;;
42912;SDS011;50720;54.324;18.558;2022-11-20T05:49:56;43.15;;;18.73;;
42912;SDS011;50720;54.324;18.558;2022-11-20T05:52:27;42.60;;;18.85;;
42912;SDS011;50720;54.324;18.558;2022-11-20T05:54:57;44.70;;;19.60;;
42912;SDS011;50720;54.324;18.558;2022-11-20T05:57:27;44.38;;;20.70;;
42912;SDS011;50720;54.324;18.558;2022-11-20T05:59:58;46.50;;;19.15;;
42912;SDS011;50720;54.324;18.558;2022-11-20T06:02:28;50.25;;;20.25;;
42912;SDS011;50720;54.324;18.558;2022-11-20T06:04:58;46.17;;;18.60;;
42912;SDS011;50720;54.324;18.558;2022-11-20T06:07:27;45.53;;;19.00;;
42912;SDS011;50720;54.324;18.558;2022-11-20T06:09:57;46.88;;;19.10;;
42912;SDS011;50720;54.324;18.558;2022-11-20T06:12:27;42.63;;;18.65;;
42912;SDS011;50720;54.324;18.558;2022-11-20T06:14:58;45.35;;;19.92;;
42912;SDS011;50720;54.324;18.558;2022-11-20T06:17:28;41.35;;;18.73;;
42912;SDS011;50720;54.324;18.558;2022-11-20T06:19:57;41.97;;;19.67;;
42912;SDS011;50720;54.324;18.558;2022-11-20T06:22:27;43.05;;;18.10;;
42912;SDS011;50720;54.324;18.558;2022-11-20T06:24:57;46.55;;;21.83;;
42912;SDS011;50720;54.324;18.558;2022-11-20T06:27:27;46.47;;;20.63;;
42912;SDS011;50720;54.324;18.558;2022-11-20T06:29:58;44.45;;;19.52;;
42912;SDS011;50720;54.324;18.558;2022-11-20T06:32:28;52.05;;;20.55;;
42912;SDS011;50720;54.324;18.558;2022-11-20T06:34:57;52.50;;;21.92;;
42912;SDS011;50720;54.324;18.558;2022-11-20T06:37:27;47.13;;;21.05;;
42912;SDS011;50720;54.324;18.558;2022-11-20T06:39:56;46.58;;;20.63;;
42912;SDS011;50720;54.324;18.558;2022-11-20T06:42:26;47.50;;;20.60;;
42912;SDS011;50720;54.324;18.558;2022-11-20T06:44:56;53.40;;;20.63;;
42912;SDS011;50720;54.324;18.558;2022-11-20T06:47:27;53.70;;;23.05;;
42912;SDS011;50720;54.324;18.558;2022-11-20T06:49:57;45.67;;;20.40;;
42912;SDS011;50720;54.324;18.558;2022-11-20T06:52:27;46.58;;;22.38;;
42912;SDS011;50720;54.324;18.558;2022-11-20T06:54:56;49.20;;;23.40;;
42912;SDS011;50720;54.324;18.558;2022-11-20T06:57:26;54.55;;;22.33;;
42912;SDS011;50720;54.324;18.558;2022-11-20T06:59:55;51.75;;;22.10;;
42912;SDS011;50720;54.324;18.558;2022-11-20T07:02:26;49.55;;;22.20;;
42912;SDS011;50720;54.324;18.558;2022-11-20T07:04:56;52.72;;;24.42;;
42912;SDS011;50720;54.324;18.558;2022-11-20T07:07:25;54.70;;;21.63;;
42912;SDS011;50720;54.324;18.558;2022-11-20T07:09:55;54.25;;;21.95;;
42912;SDS011;50720;54.324;18.558;2022-11-20T07:12:25;55.10;;;22.80;;
42912;SDS011;50720;54.324;18.558;2022-11-20T07:14:54;59.15;;;24.77;;
42912;SDS011;50720;54.324;18.558;2022-11-20T07:17:26;63.85;;;25.63;;
42912;SDS011;50720;54.324;18.558;2022-11-20T07:19:55;61.63;;;24.23;;
42912;SDS011;50720;54.324;18.558;2022-11-20T07:22:25;51.28;;;23.10;;
42912;SDS011;50720;54.324;18.558;2022-11-20T07:24:55;53.35;;;23.30;;
42912;SDS011;50720;54.324;18.558;2022-11-20T07:27:24;64.88;;;24.38;;
42912;SDS011;50720;54.324;18.558;2022-11-20T07:29:54;57.60;;;23.50;;
42912;SDS011;50720;54.324;18.558;2022-11-20T07:32:26;60.83;;;25.20;;
42912;SDS011;50720;54.324;18.558;2022-11-20T07:34:55;65.07;;;26.77;;
42912;SDS011;50720;54.324;18.558;2022-11-20T07:37:25;63.95;;;23.98;;
42912;SDS011;50720;54.324;18.558;2022-11-20T07:39:54;61.15;;;22.85;;
42912;SDS011;50720;54.324;18.558;2022-11-20T07:42:24;61.83;;;24.08;;
42912;SDS011;50720;54.324;18.558;2022-11-20T07:44:54;60.10;;;26.13;;
42912;SDS011;50720;54.324;18.558;2022-11-20T07:47:25;64.03;;;26.10;;
42912;SDS011;50720;54.324;18.558;2022-11-20T07:49:55;70.70;;;28.55;;
42912;SDS011;50720;54.324;18.558;2022-11-20T07:52:25;62.22;;;24.73;;
42912;SDS011;50720;54.324;18.558;2022-11-20T07:54:55;61.22;;;24.70;;
42912;SDS011;50720;54.324;18.558;2022-11-20T07:57:24;66.20;;;26.65;;
42912;SDS011;50720;54.324;18.558;2022-11-20T07:59:54;63.08;;;27.75;;
42912;SDS011;50720;54.324;18.558;2022-11-20T08:02:25;72.53;;;28.15;;
42912;SDS011;50720;54.324;18.558;2022-11-20T08:04:55;63.50;;;26.33;;
42912;SDS011;50720;54.324;18.558;2022-11-20T08:07:25;63.72;;;27.33;;
42912;SDS011;50720;54.324;18.558;2022-11-20T08:09:54;67.43;;;25.30;;
42912;SDS011;50720;54.324;18.558;2022-11-20T08:12:25;65.30;;;27.08;;
42912;SDS011;50720;54.324;18.558;2022-11-20T08:15:12;62.35;;;25.67;;
42912;SDS011;50720;54.324;18.558;2022-11-20T08:17:44;59.20;;;27.15;;
42912;SDS011;50720;54.324;18.558;2022-11-20T08:20:33;63.38;;;27.27;;
42912;SDS011;50720;54.324;18.558;2022-11-20T08:23:04;66.68;;;28.08;;
42912;SDS011;50720;54.324;18.558;2022-11-20T08:25:35;61.20;;;26.45;;
42912;SDS011;50720;54.324;18.558;2022-11-20T08:28:08;59.35;;;25.38;;
42912;SDS011;50720;54.324;18.558;2022-11-20T08:30:46;65.65;;;26.92;;
42912;SDS011;50720;54.324;18.558;2022-11-20T08:33:19;65.47;;;28.75;;
42912;SDS011;50720;54.324;18.558;2022-11-20T08:35:48;72.00;;;26.95;;
42912;SDS011;50720;54.324;18.558;2022-11-20T08:38:18;66.27;;;26.13;;
42912;SDS011;50720;54.324;18.558;2022-11-20T08:40:48;62.05;;;24.70;;
42912;SDS011;50720;54.324;18.558;2022-11-20T08:43:32;62.72;;;25.73;;
42912;SDS011;50720;54.324;18.558;2022-11-20T08:46:01;73.75;;;28.33;;
42912;SDS011;50720;54.324;18.558;2022-11-20T08:48:32;68.10;;;25.38;;
42912;SDS011;50720;54.324;18.558;2022-11-20T08:51:02;64.53;;;26.33;;
42912;SDS011;50720;54.324;18.558;2022-11-20T08:53:32;69.00;;;28.10;;
42912;SDS011;50720;54.324;18.558;2022-11-20T08:56:01;68.10;;;27.60;;
42912;SDS011;50720;54.324;18.558;2022-11-20T08:58:31;64.60;;;27.00;;
42912;SDS011;50720;54.324;18.558;2022-11-20T09:01:21;67.82;;;26.92;;
42912;SDS011;50720;54.324;18.558;2022-11-20T09:03:54;73.75;;;30.48;;
42912;SDS011;50720;54.324;18.558;2022-11-20T09:06:24;66.93;;;26.63;;
42912;SDS011;50720;54.324;18.558;2022-11-20T09:08:54;74.65;;;28.73;;
42912;SDS011;50720;54.324;18.558;2022-11-20T09:11:29;69.30;;;29.70;;
42912;SDS011;50720;54.324;18.558;2022-11-20T09:13:59;73.80;;;29.25;;
42912;SDS011;50720;54.324;18.558;2022-11-20T09:16:29;72.55;;;29.25;;
42912;SDS011;50720;54.324;18.558;2022-11-20T09:19:01;76.07;;;30.48;;
42912;SDS011;50720;54.324;18.558;2022-11-20T09:21:50;64.63;;;27.27;;
42912;SDS011;50720;54.324;18.558;2022-11-20T09:24:26;70.03;;;27.88;;
42912;SDS011;50720;54.324;18.558;2022-11-20T09:26:55;81.75;;;30.92;;
42912;SDS011;50720;54.324;18.558;2022-11-20T09:29:25;73.43;;;28.00;;
42912;SDS011;50720;54.324;18.558;2022-11-20T09:31:54;79.38;;;28.48;;
42912;SDS011;50720;54.324;18.558;2022-11-20T09:34:26;80.80;;;30.73;;
42912;SDS011;50720;54.324;18.558;2022-11-20T09:36:56;77.40;;;31.10;;
42912;SDS011;50720;54.324;18.558;2022-11-20T09:39:32;76.25;;;28.08;;
42912;SDS011;50720;54.324;18.558;2022-11-20T09:42:13;75.15;;;30.10;;
42912;SDS011;50720;54.324;18.558;2022-11-20T09:44:59;87.55;;;29.38;;
42912;SDS011;50720;54.324;18.558;2022-11-20T09:47:43;81.00;;;32.00;;
42912;SDS011;50720;54.324;18.558;2022-11-20T09:50:30;85.35;;;34.20;;
42912;SDS011;50720;54.324;18.558;2022-11-20T09:53:10;88.18;;;35.20;;
42912;SDS011;50720;54.324;18.558;2022-11-20T09:55:42;82.43;;;32.50;;
42912;SDS011;50720;54.324;18.558;2022-11-20T09:58:14;92.25;;;32.90;;
42912;SDS011;50720;54.324;18.558;2022-11-20T10:00:53;97.65;;;32.17;;
42912;SDS011;50720;54.324;18.558;2022-11-20T10:03:26;95.03;;;32.33;;
42912;SDS011;50720;54.324;18.558;2022-11-20T10:06:10;99.50;;;35.40;;
42912;SDS011;50720;54.324;18.558;2022-11-20T10:08:44;110.30;;;39.10;;
42912;SDS011;50720;54.324;18.558;2022-11-20T10:11:18;99.60;;;34.88;;
42912;SDS011;50720;54.324;18.558;2022-11-20T10:13:56;97.40;;;38.20;;
42912;SDS011;50720;54.324;18.558;2022-11-20T10:16:35;99.80;;;38.15;;
42912;SDS011;50720;54.324;18.558;2022-11-20T10:19:20;105.72;;;40.47;;
42912;SDS011;50720;54.324;18.558;2022-11-20T10:22:04;98.90;;;39.25;;
42912;SDS011;50720;54.324;18.558;2022-11-20T10:24:46;102.03;;;39.00;;
42912;SDS011;50720;54.324;18.558;2022-11-20T10:27:45;101.03;;;36.55;;
42912;SDS011;50720;54.324;18.558;2022-11-20T10:30:25;107.68;;;40.10;;
42912;SDS011;50720;54.324;18.558;2022-11-20T10:33:00;104.45;;;42.55;;
42912;SDS011;50720;54.324;18.558;2022-11-20T10:35:37;104.15;;;38.17;;
42912;SDS011;50720;54.324;18.558;2022-11-20T10:38:15;99.50;;;38.08;;
42912;SDS011;50720;54.324;18.558;2022-11-20T10:40:51;107.00;;;42.22;;
42912;SDS011;50720;54.324;18.558;2022-11-20T10:43:46;103.90;;;41.15;;
42912;SDS011;50720;54.324;18.558;2022-11-20T10:48:47;113.25;;;45.55;;
42912;SDS011;50720;54.324;18.558;2022-11-20T10:51:21;111.22;;;40.45;;
42912;SDS011;50720;54.324;18.558;2022-11-20T10:54:10;102.07;;;41.30;;
42912;SDS011;50720;54.324;18.558;2022-11-20T10:56:47;101.85;;;38.42;;
42912;SDS011;50720;54.324;18.558;2022-11-20T10:59:29;108.72;;;38.63;;
42912;SDS011;50720;54.324;18.558;2022-11-20T11:02:14;98.65;;;36.80;;
42912;SDS011;50720;54.324;18.558;2022-11-20T11:04:46;92.80;;;40.05;;
42912;SDS011;50720;54.324;18.558;2022-11-20T11:07:16;93.13;;;37.27;;
42912;SDS011;50720;54.324;18.558;2022-11-20T11:09:52;97.43;;;38.42;;
42912;SDS011;50720;54.324;18.558;2022-11-20T11:12:23;98.88;;;39.53;;
42912;SDS011;50720;54.324;18.558;2022-11-20T11:14:55;101.20;;;38.75;;
42912;SDS011;50720;54.324;18.558;2022-11-20T11:19:57;89.15;;;37.97;;
42912;SDS011;50720;54.324;18.558;2022-11-20T11:22:33;84.82;;;37.45;;
42912;SDS011;50720;54.324;18.558;2022-11-20T11:28:02;95.28;;;38.63;;
42912;SDS011;50720;54.324;18.558;2022-11-20T11:30:40;83.82;;;36.20;;
42912;SDS011;50720;54.324;18.558;2022-11-20T11:33:12;82.43;;;33.40;;
42912;SDS011;50720;54.324;18.558;2022-11-20T11:35:49;93.35;;;39.88;;
42912;SDS011;50720;54.324;18.558;2022-11-20T11:38:21;85.60;;;36.30;;
42912;SDS011;50720;54.324;18.558;2022-11-20T11:40:59;88.40;;;36.70;;
42912;SDS011;50720;54.324;18.558;2022-11-20T11:43:29;89.63;;;38.40;;
42912;SDS011;50720;54.324;18.558;2022-11-20T11:46:33;90.53;;;36.35;;
42912;SDS011;50720;54.324;18.558;2022-11-20T11:49:13;90.43;;;35.53;;
42912;SDS011;50720;54.324;18.558;2022-11-20T11:51:50;85.47;;;35.47;;
42912;SDS011;50720;54.324;18.558;2022-11-20T11:54:33;92.07;;;36.80;;
42912;SDS011;50720;54.324;18.558;2022-11-20T11:57:12;86.47;;;38.90;;
42912;SDS011;50720;54.324;18.558;2022-11-20T11:59:51;83.00;;;36.22;;
42912;SDS011;50720;54.324;18.558;2022-11-20T12:02:32;83.45;;;35.17;;
42912;SDS011;50720;54.324;18.558;2022-11-20T12:05:08;75.97;;;34.78;;
42912;SDS011;50720;54.324;18.558;2022-11-20T12:07:46;89.32;;;37.30;;
42912;SDS011;50720;54.324;18.558;2022-11-20T12:10:21;77.68;;;34.05;;
42912;SDS011;50720;54.324;18.558;2022-11-20T12:13:00;84.28;;;36.60;;
42912;SDS011;50720;54.324;18.558;2022-11-20T12:15:33;80.93;;;35.85;;
42912;SDS011;50720;54.324;18.558;2022-11-20T12:18:04;88.22;;;36.63;;
42912;SDS011;50720;54.324;18.558;2022-11-20T12:20:41;88.88;;;36.13;;
42912;SDS011;50720;54.324;18.558;2022-11-20T12:23:24;83.82;;;33.95;;
42912;SDS011;50720;54.324;18.558;2022-11-20T12:25:59;81.57;;;34.25;;
42912;SDS011;50720;54.324;18.558;2022-11-20T12:28:41;80.78;;;34.28;;
42912;SDS011;50720;54.324;18.558;2022-11-20T12:31:26;83.25;;;36.50;;
42912;SDS011;50720;54.324;18.558;2022-11-20T12:34:11;87.10;;;37.65;;
42912;SDS011;50720;54.324;18.558;2022-11-20T12:36:49;84.55;;;35.25;;
42912;SDS011;50720;54.324;18.558;2022-11-20T12:39:35;84.45;;;35.58;;
42912;SDS011;50720;54.324;18.558;2022-11-20T12:42:13;80.65;;;33.83;;
42912;SDS011;50720;54.324;18.558;2022-11-20T12:48:36;78.53;;;34.33;;
42912;SDS011;50720;54.324;18.558;2022-11-20T12:51:39;83.63;;;35.92;;
42912;SDS011;50720;54.324;18.558;2022-11-20T12:57:39;73.85;;;32.30;;
42912;SDS011;50720;54.324;18.558;2022-11-20T13:00:17;80.50;;;33.40;;
42912;SDS011;50720;54.324;18.558;2022-11-20T13:06:01;74.47;;;33.92;;
42912;SDS011;50720;54.324;18.558;2022-11-20T13:08:40;85.57;;;34.20;;
42912;SDS011;50720;54.324;18.558;2022-11-20T13:11:13;85.50;;;37.45;;
42912;SDS011;50720;54.324;18.558;2022-11-20T13:13:55;77.70;;;32.53;;
42912;SDS011;50720;54.324;18.558;2022-11-20T13:16:33;76.65;;;33.85;;
42912;SDS011;50720;54.324;18.558;2022-11-20T13:19:09;76.65;;;34.20;;
42912;SDS011;50720;54.324;18.558;2022-11-20T13:21:42;82.50;;;33.00;;
42912;SDS011;50720;54.324;18.558;2022-11-20T13:24:20;77.15;;;36.35;;
42912;SDS011;50720;54.324;18.558;2022-11-20T13:27:01;86.20;;;35.22;;
42912;SDS011;50720;54.324;18.558;2022-11-20T13:29:33;84.15;;;35.80;;
42912;SDS011;50720;54.324;18.558;2022-11-20T13:32:04;79.53;;;34.95;;
42912;SDS011;50720;54.324;18.558;2022-11-20T13:34:36;76.05;;;32.78;;
42912;SDS011;50720;54.324;18.558;2022-11-20T13:40:10;73.38;;;32.15;;
42912;SDS011;50720;54.324;18.558;2022-11-20T13:42:43;82.68;;;31.38;;
42912;SDS011;50720;54.324;18.558;2022-11-20T13:45:22;81.03;;;32.78;;
42912;SDS011;50720;54.324;18.558;2022-11-20T13:47:53;78.40;;;32.65;;
42912;SDS011;50720;54.324;18.558;2022-11-20T13:50:32;76.25;;;34.53;;
42912;SDS011;50720;54.324;18.558;2022-11-20T13:53:16;82.03;;;33.33;;
42912;SDS011;50720;54.324;18.558;2022-11-20T13:55:58;71.38;;;34.03;;
42912;SDS011;50720;54.324;18.558;2022-11-20T13:58:35;92.22;;;37.25;;
42912;SDS011;50720;54.324;18.558;2022-11-20T14:01:19;75.75;;;35.58;;
42912;SDS011;50720;54.324;18.558;2022-11-20T14:03:52;82.50;;;35.70;;
42912;SDS011;50720;54.324;18.558;2022-11-20T14:06:34;80.78;;;34.33;;
42912;SDS011;50720;54.324;18.558;2022-11-20T14:09:12;85.30;;;37.42;;
42912;SDS011;50720;54.324;18.558;2022-11-20T14:11:54;90.57;;;36.05;;
42912;SDS011;50720;54.324;18.558;2022-11-20T14:14:23;82.50;;;37.33;;
42912;SDS011;50720;54.324;18.558;2022-11-20T14:17:07;89.57;;;38.13;;
42912;SDS011;50720;54.324;18.558;2022-11-20T14:19:37;88.05;;;33.95;;
42912;SDS011;50720;54.324;18.558;2022-11-20T14:22:14;92.82;;;39.30;;
42912;SDS011;50720;54.324;18.558;2022-11-20T14:24:48;98.22;;;39.70;;
42912;SDS011;50720;54.324;18.558;2022-11-20T14:27:32;93.18;;;40.15;;
42912;SDS011;50720;54.324;18.558;2022-11-20T14:30:04;91.90;;;38.13;;
42912;SDS011;50720;54.324;18.558;2022-11-20T14:32:35;91.55;;;39.15;;
42912;SDS011;50720;54.324;18.558;2022-11-20T14:35:07;88.88;;;40.17;;
42912;SDS011;50720;54.324;18.558;2022-11-20T14:37:40;87.50;;;39.25;;
42912;SDS011;50720;54.324;18.558;2022-11-20T14:40:23;98.22;;;39.53;;
42912;SDS011;50720;54.324;18.558;2022-11-20T14:42:56;93.38;;;41.03;;
42912;SDS011;50720;54.324;18.558;2022-11-20T14:45:27;93.22;;;40.22;;
42912;SDS011;50720;54.324;18.558;2022-11-20T14:47:57;93.97;;;40.23;;
42912;SDS011;50720;54.324;18.558;2022-11-20T14:50:28;101.20;;;40.75;;
42912;SDS011;50720;54.324;18.558;2022-11-20T14:53:00;92.75;;;39.35;;
42912;SDS011;50720;54.324;18.558;2022-11-20T14:55:32;103.50;;;44.22;;
42912;SDS011;50720;54.324;18.558;2022-11-20T14:58:03;91.25;;;40.42;;
42912;SDS011;50720;54.324;18.558;2022-11-20T15:00:34;102.15;;;41.08;;
42912;SDS011;50720;54.324;18.558;2022-11-20T15:03:13;98.60;;;41.78;;
42912;SDS011;50720;54.324;18.558;2022-11-20T15:05:45;100.15;;;41.33;;
42912;SDS011;50720;54.324;18.558;2022-11-20T15:08:16;98.22;;;42.60;;